Terminal Aerodrome Forecast
Issued by NWS

Home | Current Version | Previous Version | Text Only | Print | Product List | Glossary On
Versions: 1 2 3 4 5 6 7 8 9 10 11 12 13 14 15 16 17 18 19 20 21
000
FTUS43 KIND 282320
TAFBMG
TAF
KBMG 282320Z 2900/2924 00000KT P6SM VCTS BKN040 BKN120CB
      TEMPO 2900/2901 1 1/2SM -TSRA BKN050CB
     FM290700 00000KT 1 1/2SM BR BKN100
      TEMPO 2908/2912 1/2SM FG OVC007
     FM291300 24003KT 1 1/2SM BR OVC025
     FM291600 26005KT P6SM BKN050
      AMD LTD TO CLD VIS AND WIND TIL 291300=

USA.gov is the U.S. government's official web portal to all federal, state and local government web resources and services.